createdAt,value
2018-11-05T00:00:42.532Z,12.85
2018-11-05T00:01:42.451Z,12.83
2018-11-05T00:02:42.372Z,12.82
2018-11-05T00:03:42.294Z,12.80
2018-11-05T00:04:42.235Z,12.85
2018-11-05T00:05:42.133Z,12.80
2018-11-05T00:06:42.058Z,12.83
2018-11-05T00:07:41.975Z,12.95
2018-11-05T00:08:41.898Z,12.83
2018-11-05T00:09:41.819Z,12.79
2018-11-05T00:10:41.740Z,12.86
2018-11-05T00:11:41.672Z,12.83
2018-11-05T00:12:41.590Z,12.82
2018-11-05T00:13:41.501Z,12.78
2018-11-05T00:14:41.425Z,12.83
2018-11-05T00:15:41.342Z,12.83
2018-11-05T00:16:41.296Z,12.73
2018-11-05T00:17:41.183Z,12.72
2018-11-05T00:18:41.117Z,12.78
2018-11-05T00:19:41.040Z,12.86
2018-11-05T00:20:40.946Z,12.80
2018-11-05T00:21:40.869Z,12.82
2018-11-05T00:22:40.788Z,12.86
2018-11-05T00:23:40.710Z,12.78
2018-11-05T00:24:40.629Z,12.82
2018-11-05T00:25:40.560Z,12.82
2018-11-05T00:26:40.471Z,12.75
2018-11-05T00:27:40.391Z,12.76
2018-11-05T00:28:40.318Z,12.78
2018-11-05T00:29:40.231Z,12.72
2018-11-05T00:30:40.157Z,12.75
2018-11-05T00:31:40.074Z,12.70
2018-11-05T00:32:39.995Z,12.72
2018-11-05T00:33:39.919Z,12.70
2018-11-05T00:34:39.836Z,12.73
2018-11-05T00:35:39.758Z,12.72
2018-11-05T00:36:39.687Z,12.65
2018-11-05T00:37:39.598Z,12.73
2018-11-05T00:38:39.524Z,12.72
2018-11-05T00:39:39.445Z,12.73
2018-11-05T00:40:39.361Z,12.72
2018-11-05T00:41:39.282Z,12.72
2018-11-05T00:42:39.205Z,12.75
2018-11-05T00:43:39.126Z,12.75
2018-11-05T00:44:39.061Z,12.79
2018-11-05T00:45:39.011Z,12.75
2018-11-05T00:46:38.884Z,12.75
2018-11-05T00:47:38.804Z,12.75
2018-11-05T00:48:38.727Z,12.78
2018-11-05T00:49:38.648Z,12.76
2018-11-05T00:50:38.565Z,12.80
2018-11-05T00:51:38.489Z,12.82
2018-11-05T00:52:38.408Z,12.85
2018-11-05T00:53:38.328Z,12.76
2018-11-05T00:54:38.251Z,12.82
2018-11-05T00:55:38.173Z,12.83
2018-11-05T00:56:38.093Z,12.73
2018-11-05T00:57:38.014Z,12.78
2018-11-05T00:58:37.933Z,12.82
2018-11-05T00:59:37.853Z,12.80
2018-11-05T01:00:37.788Z,12.85
2018-11-05T01:01:37.716Z,12.73
2018-11-05T01:02:37.622Z,12.78
2018-11-05T01:03:37.538Z,12.73
2018-11-05T01:04:37.457Z,12.73
2018-11-05T01:05:37.378Z,12.82
2018-11-05T01:06:37.299Z,12.73
2018-11-05T01:07:37.221Z,12.73
2018-11-05T01:08:37.147Z,12.76
2018-11-05T01:09:37.061Z,12.78
2018-11-05T01:10:36.982Z,12.73
2018-11-05T01:11:36.902Z,12.78
2018-11-05T01:12:36.826Z,12.73
2018-11-05T01:13:36.743Z,12.76
2018-11-05T01:14:36.669Z,12.73
2018-11-05T01:15:36.584Z,12.73
2018-11-05T01:16:36.511Z,12.73
2018-11-05T01:17:36.427Z,12.73
2018-11-05T01:18:36.346Z,12.72
2018-11-05T01:19:36.268Z,12.72
2018-11-05T01:20:36.192Z,12.73
2018-11-05T01:21:36.109Z,12.67
2018-11-05T01:22:36.032Z,12.72
2018-11-05T01:23:35.950Z,12.70
2018-11-05T01:24:35.876Z,12.70
2018-11-05T01:25:35.792Z,12.72
2018-11-05T01:26:35.713Z,12.62
2018-11-05T01:27:35.648Z,12.67
2018-11-05T01:28:35.554Z,12.62
2018-11-05T01:29:35.478Z,12.67
2018-11-05T01:30:35.395Z,12.65
2018-11-05T01:31:35.319Z,12.68
2018-11-05T01:32:35.237Z,12.67
2018-11-05T01:33:35.157Z,12.50
2018-11-05T01:34:35.094Z,12.49
2018-11-05T01:35:34.998Z,12.55
2018-11-05T01:36:34.920Z,12.55
2018-11-05T01:37:34.837Z,12.46
2018-11-05T01:38:34.760Z,12.40
2018-11-05T01:39:34.681Z,12.42
2018-11-05T01:40:34.602Z,12.43
2018-11-05T01:41:34.521Z,12.42
2018-11-05T01:42:34.443Z,12.40
2018-11-05T01:43:34.364Z,12.37
2018-11-05T01:44:34.286Z,12.37
2018-11-05T01:45:34.205Z,12.39
2018-11-05T01:46:34.134Z,12.36
2018-11-05T01:47:34.044Z,12.28
2018-11-05T01:48:33.976Z,12.27
2018-11-05T01:49:33.882Z,12.27
2018-11-05T01:50:33.804Z,12.21
2018-11-05T01:51:33.724Z,12.27
2018-11-05T01:52:33.645Z,12.28
2018-11-05T01:53:33.566Z,12.20
2018-11-05T01:54:33.485Z,12.24
2018-11-05T01:55:33.409Z,12.28
2018-11-05T01:56:33.328Z,12.22
2018-11-05T01:57:33.253Z,12.20
2018-11-05T01:58:33.165Z,12.17
2018-11-05T01:59:33.097Z,12.17
2018-11-05T02:00:33.008Z,12.17
2018-11-05T02:01:32.925Z,12.17
2018-11-05T02:02:32.849Z,12.13
2018-11-05T02:03:32.780Z,12.12
2018-11-05T02:04:32.689Z,12.17
2018-11-05T02:05:32.608Z,12.10
2018-11-05T02:06:32.537Z,12.06
2018-11-05T02:07:32.464Z,12.09
2018-11-05T02:08:32.370Z,12.09
2018-11-05T02:09:32.312Z,12.06
2018-11-05T02:10:32.378Z,12.13
2018-11-05T02:11:32.127Z,12.02
2018-11-05T02:12:32.051Z,12.09
2018-11-05T02:13:32.080Z,12.00
2018-11-05T02:14:31.888Z,12.09
2018-11-05T02:15:31.810Z,12.04
2018-11-05T02:16:31.728Z,12.09
2018-11-05T02:17:31.648Z,12.06
2018-11-05T02:18:31.581Z,12.06
2018-11-05T02:19:31.488Z,11.95
2018-11-05T02:20:31.409Z,11.88
2018-11-05T02:21:31.334Z,11.99
2018-11-05T02:22:31.247Z,12.02
2018-11-05T02:23:31.176Z,11.86
2018-11-05T02:24:31.091Z,11.91
2018-11-05T02:25:31.009Z,11.95
2018-11-05T02:26:30.960Z,11.95
2018-11-05T02:27:30.849Z,11.91
2018-11-05T02:28:30.774Z,11.94
2018-11-05T02:29:30.688Z,11.97
2018-11-05T02:30:30.610Z,11.87
2018-11-05T02:31:30.529Z,11.90
2018-11-05T02:32:30.453Z,11.88
2018-11-05T02:33:30.369Z,11.80
2018-11-05T02:34:30.303Z,11.83
2018-11-05T02:35:30.205Z,11.77
2018-11-05T02:36:30.131Z,11.78
2018-11-05T02:37:30.061Z,11.77
2018-11-05T02:38:29.967Z,11.77
2018-11-05T02:39:29.886Z,11.84
2018-11-05T02:40:29.809Z,11.84
2018-11-05T02:41:29.726Z,11.75
2018-11-05T02:42:29.649Z,11.73
2018-11-05T02:43:29.566Z,11.70
2018-11-05T02:44:29.484Z,11.80
2018-11-05T02:45:29.404Z,11.72
2018-11-05T02:46:29.323Z,11.72
2018-11-05T02:47:29.246Z,11.72
2018-11-05T02:48:29.171Z,11.66
2018-11-05T02:49:29.084Z,11.75
2018-11-05T02:50:29.004Z,11.69
2018-11-05T02:51:28.924Z,11.65
2018-11-05T02:52:28.852Z,11.66
2018-11-05T02:53:28.764Z,11.68
2018-11-05T02:54:28.682Z,11.68
2018-11-05T02:55:28.612Z,11.72
2018-11-05T02:56:28.523Z,11.68
2018-11-05T02:57:28.440Z,11.72
2018-11-05T02:58:28.361Z,11.72
2018-11-05T02:59:28.286Z,11.72
2018-11-05T03:00:28.205Z,11.68
2018-11-05T03:01:28.132Z,11.66
2018-11-05T03:02:28.046Z,11.70
2018-11-05T03:03:27.961Z,11.60
2018-11-05T03:04:27.878Z,11.63
2018-11-05T03:05:27.798Z,11.63
2018-11-05T03:06:27.728Z,11.60
2018-11-05T03:07:27.641Z,11.60
2018-11-05T03:08:27.559Z,11.62
2018-11-05T03:09:27.477Z,11.59
2018-11-05T03:10:27.397Z,11.57
2018-11-05T03:11:27.316Z,11.55
2018-11-05T03:12:27.236Z,11.65
2018-11-05T03:13:27.156Z,11.62
2018-11-05T03:14:27.077Z,11.59
2018-11-05T03:15:27.000Z,11.60
2018-11-05T03:16:26.915Z,11.57
2018-11-05T03:17:26.837Z,11.55
2018-11-05T03:18:26.754Z,11.54
2018-11-05T03:19:26.683Z,11.60
2018-11-05T03:20:26.592Z,11.59
2018-11-05T03:21:26.527Z,11.55
2018-11-05T03:22:26.441Z,11.47
2018-11-05T03:23:26.359Z,11.47
2018-11-05T03:24:26.271Z,11.51
2018-11-05T03:25:26.189Z,11.47
2018-11-05T03:26:26.109Z,11.54
2018-11-05T03:27:26.028Z,11.55
2018-11-05T03:28:25.950Z,11.54
2018-11-05T03:29:25.878Z,11.52
2018-11-05T03:30:25.789Z,11.52
2018-11-05T03:31:25.706Z,11.45
2018-11-05T03:32:25.625Z,11.50
2018-11-05T03:33:25.544Z,11.50
2018-11-05T03:34:25.464Z,11.55
2018-11-05T03:35:25.397Z,11.48
2018-11-05T03:36:25.309Z,11.48
2018-11-05T03:37:25.224Z,11.52
2018-11-05T03:38:25.143Z,11.47
2018-11-05T03:39:25.062Z,11.47
2018-11-05T03:40:24.982Z,11.48
2018-11-05T03:41:24.949Z,11.45
2018-11-05T03:42:24.821Z,11.41
2018-11-05T03:43:24.743Z,11.40
2018-11-05T03:44:24.662Z,11.45
2018-11-05T03:45:24.580Z,11.41
2018-11-05T03:46:24.498Z,11.40
2018-11-05T03:47:24.420Z,11.41
2018-11-05T03:48:24.338Z,11.44
2018-11-05T03:49:24.257Z,11.41
2018-11-05T03:50:24.177Z,11.44
2018-11-05T03:51:24.102Z,11.45
2018-11-05T03:52:24.019Z,11.43
2018-11-05T03:53:23.938Z,11.37
2018-11-05T03:54:23.857Z,11.41
2018-11-05T03:55:23.844Z,11.36
2018-11-05T03:56:24.023Z,11.33
2018-11-05T03:57:23.612Z,11.29
2018-11-05T03:58:23.535Z,11.30
2018-11-05T03:59:23.458Z,11.35
2018-11-05T04:00:23.372Z,11.37
2018-11-05T04:01:23.297Z,11.35
2018-11-05T04:02:23.208Z,11.33
2018-11-05T04:03:23.152Z,11.32
2018-11-05T04:04:23.068Z,11.32
2018-11-05T04:05:22.971Z,11.35
2018-11-05T04:06:22.887Z,11.40
2018-11-05T04:07:22.807Z,11.30
2018-11-05T04:08:22.731Z,11.35
2018-11-05T04:09:22.645Z,11.30
2018-11-05T04:10:22.582Z,11.35
2018-11-05T04:11:22.484Z,11.37
2018-11-05T04:12:22.404Z,11.35
2018-11-05T04:13:22.321Z,11.33
2018-11-05T04:14:22.241Z,11.35
2018-11-05T04:15:22.183Z,11.35
2018-11-05T04:16:22.080Z,11.32
2018-11-05T04:17:22.002Z,11.36
2018-11-05T04:18:21.919Z,11.25
2018-11-05T04:19:21.840Z,11.19
2018-11-05T04:20:21.758Z,11.29
2018-11-05T04:21:21.675Z,11.26
2018-11-05T04:22:21.596Z,11.23
2018-11-05T04:23:21.516Z,11.22
2018-11-05T04:24:21.439Z,11.23
2018-11-05T04:25:21.352Z,11.32
2018-11-05T04:26:21.275Z,11.29
2018-11-05T04:27:21.192Z,11.30
2018-11-05T04:28:21.111Z,11.22
2018-11-05T04:29:21.031Z,11.22
2018-11-05T04:30:20.949Z,11.23
2018-11-05T04:31:20.869Z,11.22
2018-11-05T04:32:20.793Z,11.15
2018-11-05T04:33:20.711Z,11.19
2018-11-05T04:34:20.626Z,11.32
2018-11-05T04:35:20.546Z,11.25
2018-11-05T04:36:20.466Z,11.18
2018-11-05T04:37:20.385Z,11.27
2018-11-05T04:38:20.308Z,11.26
2018-11-05T04:39:20.224Z,11.19
2018-11-05T04:40:20.147Z,11.33
2018-11-05T04:41:20.061Z,11.22
2018-11-05T04:42:19.982Z,11.19
2018-11-05T04:43:19.901Z,11.17
2018-11-05T04:44:19.823Z,11.22
2018-11-05T04:45:19.745Z,11.22
2018-11-05T04:46:19.659Z,11.15
2018-11-05T04:47:19.579Z,11.14
2018-11-05T04:48:19.504Z,11.19
2018-11-05T04:49:19.417Z,11.17
2018-11-05T04:50:19.337Z,11.08
2018-11-05T04:51:19.256Z,11.18
2018-11-05T04:52:19.176Z,11.10
2018-11-05T04:53:19.093Z,11.11
2018-11-05T04:54:19.014Z,11.11
2018-11-05T04:55:18.931Z,11.11
2018-11-05T04:56:18.850Z,11.08
2018-11-05T04:57:18.772Z,11.17
2018-11-05T04:58:18.691Z,11.12
2018-11-05T04:59:18.610Z,11.08
2018-11-05T05:00:18.528Z,11.07
2018-11-05T05:01:18.447Z,11.07
2018-11-05T05:02:18.376Z,11.10
2018-11-05T05:03:18.335Z,11.10
2018-11-05T05:04:18.203Z,11.10
2018-11-05T05:05:18.127Z,11.11
2018-11-05T05:06:18.063Z,11.15
2018-11-05T05:07:17.963Z,11.14
2018-11-05T05:08:17.883Z,11.05
2018-11-05T05:09:17.799Z,11.04
2018-11-05T05:10:17.721Z,10.99
2018-11-05T05:11:17.637Z,11.14
2018-11-05T05:12:17.561Z,11.05
2018-11-05T05:13:17.479Z,11.02
2018-11-05T05:14:17.396Z,11.04
2018-11-05T05:15:17.317Z,11.12
2018-11-05T05:16:17.329Z,11.11
2018-11-05T05:17:17.155Z,11.17
2018-11-05T05:18:17.076Z,11.11
2018-11-05T05:19:16.995Z,11.07
2018-11-05T05:20:16.910Z,11.07
2018-11-05T05:21:16.828Z,11.11
2018-11-05T05:22:16.797Z,11.14
2018-11-05T05:23:16.668Z,11.15
2018-11-05T05:24:16.589Z,11.15
2018-11-05T05:25:16.509Z,11.11
2018-11-05T05:26:16.440Z,11.11
2018-11-05T05:27:16.374Z,11.15
2018-11-05T05:28:16.264Z,11.12
2018-11-05T05:29:16.183Z,11.18
2018-11-05T05:30:16.112Z,11.18
2018-11-05T05:31:16.021Z,11.12
2018-11-05T05:32:15.944Z,11.11
2018-11-05T05:33:15.910Z,11.11
2018-11-05T05:34:15.778Z,11.08
2018-11-05T05:35:15.701Z,11.11
2018-11-05T05:36:15.619Z,11.11
2018-11-05T05:37:15.547Z,11.18
2018-11-05T05:38:15.458Z,11.04
2018-11-05T05:39:15.373Z,11.08
2018-11-05T05:40:15.295Z,11.08
2018-11-05T05:41:15.247Z,11.05
2018-11-05T05:42:15.131Z,11.08
2018-11-05T05:43:15.050Z,11.08
2018-11-05T05:44:14.969Z,11.12
2018-11-05T05:45:14.887Z,11.12
2018-11-05T05:46:14.808Z,11.08
2018-11-05T05:47:14.733Z,11.10
2018-11-05T05:48:14.650Z,11.02
2018-11-05T05:49:14.565Z,11.10
2018-11-05T05:50:14.592Z,11.14
2018-11-05T05:51:14.423Z,11.08
2018-11-05T05:52:14.322Z,11.05
2018-11-05T05:53:14.242Z,11.10
2018-11-05T05:54:14.160Z,11.07
2018-11-05T05:55:14.078Z,11.07
2018-11-05T05:56:14.011Z,11.12
2018-11-05T05:57:13.919Z,11.10
2018-11-05T05:58:13.836Z,11.04
2018-11-05T05:59:13.765Z,11.00
2018-11-05T06:00:13.676Z,11.07
2018-11-05T06:01:13.593Z,11.11
2018-11-05T06:02:13.533Z,10.97
2018-11-05T06:03:13.436Z,11.07
2018-11-05T06:04:13.352Z,11.00
2018-11-05T06:05:13.269Z,11.00
2018-11-05T06:06:13.325Z,10.93
2018-11-05T06:07:13.109Z,10.93
2018-11-05T06:08:13.028Z,11.04
2018-11-05T06:09:12.945Z,11.00
2018-11-05T06:10:12.868Z,10.93
2018-11-05T06:11:12.786Z,10.94
2018-11-05T06:12:12.708Z,11.04
2018-11-05T06:13:12.622Z,10.94
2018-11-05T06:14:12.543Z,10.94
2018-11-05T06:15:12.461Z,10.90
2018-11-05T06:16:12.386Z,10.94
2018-11-05T06:17:12.304Z,10.96
2018-11-05T06:18:12.219Z,10.96
2018-11-05T06:19:12.137Z,10.94
2018-11-05T06:20:12.073Z,10.97
2018-11-05T06:21:11.975Z,10.97
2018-11-05T06:22:11.896Z,11.00
2018-11-05T06:23:11.815Z,11.00
2018-11-05T06:24:11.733Z,11.02
2018-11-05T06:25:11.655Z,10.97
2018-11-05T06:26:11.595Z,10.99
2018-11-05T06:27:11.488Z,11.02
2018-11-05T06:28:11.409Z,11.04
2018-11-05T06:29:11.329Z,11.00
2018-11-05T06:30:11.246Z,11.04
2018-11-05T06:31:11.185Z,11.02
2018-11-05T06:32:11.095Z,11.05
2018-11-05T06:33:11.022Z,11.05
2018-11-05T06:34:10.925Z,11.08
2018-11-05T06:35:10.903Z,11.04
2018-11-05T06:36:10.761Z,11.00
2018-11-05T06:37:10.680Z,11.08
2018-11-05T06:38:10.599Z,11.07
2018-11-05T06:39:10.522Z,11.08
2018-11-05T06:40:10.438Z,11.11
2018-11-05T06:41:10.432Z,11.04
2018-11-05T06:42:10.275Z,11.07
2018-11-05T06:43:10.196Z,11.07
2018-11-05T06:44:10.144Z,11.07
2018-11-05T06:45:10.052Z,11.12
2018-11-05T06:46:09.955Z,11.05
2018-11-05T06:47:09.871Z,11.05
2018-11-05T06:48:09.793Z,11.08
2018-11-05T06:49:09.710Z,11.18
2018-11-05T06:50:09.630Z,11.11
2018-11-05T06:51:09.553Z,11.14
2018-11-05T06:52:09.466Z,11.11
2018-11-05T06:53:09.388Z,11.15
2018-11-05T06:54:09.305Z,11.12
2018-11-05T06:55:09.231Z,11.05
2018-11-05T06:56:09.151Z,11.19
2018-11-05T06:57:09.061Z,11.23
2018-11-05T06:58:08.983Z,11.19
2018-11-05T06:59:08.901Z,11.26
2018-11-05T07:00:08.822Z,11.23
2018-11-05T07:01:08.741Z,11.25
2018-11-05T07:02:08.658Z,11.22
2018-11-05T07:03:08.580Z,11.33
2018-11-05T07:04:08.498Z,11.22
2018-11-05T07:05:08.448Z,11.19
2018-11-05T07:06:08.340Z,11.25
2018-11-05T07:07:08.258Z,11.25
2018-11-05T07:08:08.175Z,11.26
2018-11-05T07:09:08.095Z,11.25
2018-11-05T07:10:08.020Z,11.29
2018-11-05T07:11:07.934Z,11.26
2018-11-05T07:12:07.852Z,11.25
2018-11-05T07:13:07.772Z,11.29
2018-11-05T07:14:07.693Z,11.18
2018-11-05T07:15:07.611Z,11.27
2018-11-05T07:16:07.528Z,11.27
2018-11-05T07:17:07.484Z,11.26
2018-11-05T07:18:07.383Z,11.25
2018-11-05T07:19:07.574Z,11.25
2018-11-05T07:20:07.207Z,11.23
2018-11-05T07:21:07.148Z,11.25
2018-11-05T07:22:07.065Z,11.25
2018-11-05T07:23:07.005Z,11.18
2018-11-05T07:24:06.884Z,11.25
2018-11-05T07:25:06.842Z,11.27
2018-11-05T07:26:06.720Z,11.27
2018-11-05T07:27:06.649Z,11.23
2018-11-05T07:28:06.566Z,11.19
2018-11-05T07:29:06.485Z,11.19
2018-11-05T07:30:06.399Z,11.23
2018-11-05T07:31:06.321Z,11.22
2018-11-05T07:32:06.240Z,11.27
2018-11-05T07:33:06.174Z,11.33
2018-11-05T07:34:06.227Z,11.30
2018-11-05T07:35:06.002Z,11.29
2018-11-05T07:36:05.917Z,11.26
2018-11-05T07:37:05.844Z,11.32
2018-11-05T07:38:05.772Z,11.40
2018-11-05T07:39:05.677Z,11.35
2018-11-05T07:40:05.599Z,11.36
2018-11-05T07:41:05.517Z,11.29
2018-11-05T07:42:05.435Z,11.40
2018-11-05T07:43:05.355Z,11.40
2018-11-05T07:44:05.273Z,11.30
2018-11-05T07:45:05.192Z,11.48
2018-11-05T07:46:05.113Z,11.40
2018-11-05T07:47:05.030Z,11.41
2018-11-05T07:48:04.954Z,11.37
2018-11-05T07:49:04.898Z,11.35
2018-11-05T07:50:04.797Z,11.32
2018-11-05T07:51:04.717Z,11.32
2018-11-05T07:52:04.628Z,11.40
2018-11-05T07:53:04.547Z,11.33
2018-11-05T07:54:04.469Z,11.33
2018-11-05T07:55:04.386Z,11.33
2018-11-05T07:56:04.359Z,11.37
2018-11-05T07:57:04.226Z,11.47
2018-11-05T07:58:04.147Z,11.48
2018-11-05T07:59:04.064Z,11.40
2018-11-05T08:00:03.985Z,11.48
2018-11-05T08:01:03.904Z,11.51
2018-11-05T08:02:03.823Z,11.51
2018-11-05T08:03:03.877Z,11.47
2018-11-05T08:04:03.664Z,11.52
2018-11-05T08:05:03.590Z,11.47
2018-11-05T08:06:03.510Z,11.48
2018-11-05T08:07:03.422Z,11.59
2018-11-05T08:08:03.342Z,11.55
2018-11-05T08:09:03.260Z,11.60
2018-11-05T08:10:03.190Z,11.65
2018-11-05T08:11:03.103Z,11.63
2018-11-05T08:12:03.023Z,11.57
2018-11-05T08:13:02.940Z,11.62
2018-11-05T08:14:02.865Z,11.68
2018-11-05T08:15:02.779Z,11.59
2018-11-05T08:16:02.700Z,11.72
2018-11-05T08:17:02.620Z,11.69
2018-11-05T08:18:02.539Z,11.69
2018-11-05T08:19:02.460Z,11.66
2018-11-05T08:20:02.379Z,11.66
2018-11-05T08:21:02.298Z,11.70
2018-11-05T08:22:02.297Z,11.69
2018-11-05T08:23:02.137Z,11.75
2018-11-05T08:24:02.057Z,11.72
2018-11-05T08:25:01.977Z,11.75
2018-11-05T08:26:01.899Z,11.81
2018-11-05T08:27:01.819Z,11.86
2018-11-05T08:28:01.738Z,11.81
2018-11-05T08:29:01.655Z,11.78
2018-11-05T08:30:01.637Z,11.78
2018-11-05T08:31:01.498Z,11.84
2018-11-05T08:32:01.420Z,11.84
2018-11-05T08:33:01.336Z,11.97
2018-11-05T08:34:01.316Z,11.99
2018-11-05T08:35:01.176Z,11.99
2018-11-05T08:36:01.100Z,12.04
2018-11-05T08:37:01.017Z,12.02
2018-11-05T08:38:00.936Z,12.06
2018-11-05T08:39:00.919Z,12.12
2018-11-05T08:40:00.788Z,12.02
2018-11-05T08:41:00.710Z,12.06
2018-11-05T08:42:00.630Z,12.00
2018-11-05T08:43:00.556Z,12.00
2018-11-05T08:44:00.456Z,12.06
2018-11-05T08:45:00.377Z,12.02
2018-11-05T08:46:00.336Z,12.10
2018-11-05T08:47:00.273Z,12.10
2018-11-05T08:48:00.142Z,12.15
2018-11-05T08:49:00.057Z,12.06
2018-11-05T08:49:59.987Z,12.09
2018-11-05T08:50:59.957Z,12.13
2018-11-05T08:51:59.822Z,12.10
2018-11-05T08:52:59.739Z,12.18
2018-11-05T08:53:59.703Z,12.17
2018-11-05T08:54:59.582Z,12.15
2018-11-05T08:55:59.502Z,12.21
2018-11-05T08:56:59.422Z,12.17
2018-11-05T08:57:59.339Z,12.17
2018-11-05T08:58:59.266Z,12.17
2018-11-05T08:59:59.181Z,12.21
2018-11-05T09:00:59.203Z,12.21
2018-11-05T09:01:59.025Z,12.28
2018-11-05T09:02:58.986Z,12.22
2018-11-05T09:03:58.871Z,12.27
2018-11-05T09:04:58.820Z,12.25
2018-11-05T09:05:58.707Z,12.27
2018-11-05T09:06:58.625Z,12.21
2018-11-05T09:07:58.557Z,12.29
2018-11-05T09:08:58.466Z,12.24
2018-11-05T09:09:58.484Z,12.36
2018-11-05T09:10:58.672Z,12.28
2018-11-05T09:11:58.315Z,12.27
2018-11-05T09:12:58.149Z,12.24
2018-11-05T09:13:58.073Z,12.27
2018-11-05T09:14:58.000Z,12.39
2018-11-05T09:15:57.926Z,12.32
2018-11-05T09:16:57.833Z,12.36
2018-11-05T09:17:57.755Z,12.32
2018-11-05T09:18:57.672Z,12.36
2018-11-05T09:19:57.594Z,12.40
2018-11-05T09:20:57.606Z,12.37
2018-11-05T09:21:57.437Z,12.29
2018-11-05T09:22:58.145Z,12.37
2018-11-05T09:23:57.287Z,12.35
2018-11-05T09:24:57.195Z,12.36
2018-11-05T09:25:57.116Z,12.42
2018-11-05T09:26:57.051Z,12.39
2018-11-05T09:27:57.046Z,12.35
2018-11-05T09:28:56.878Z,12.35
2018-11-05T09:29:56.797Z,12.40
2018-11-05T09:30:56.721Z,12.37
2018-11-05T09:31:56.640Z,12.40
2018-11-05T09:32:56.559Z,12.45
2018-11-05T09:33:56.480Z,12.45
2018-11-05T09:34:56.401Z,12.40
2018-11-05T09:35:56.380Z,12.42
2018-11-05T09:36:56.251Z,12.46
2018-11-05T09:37:56.162Z,12.49
2018-11-05T09:39:03.744Z,12.50
2018-11-05T09:41:00.461Z,12.50
2018-11-05T09:42:00.329Z,12.57
2018-11-05T09:44:04.668Z,12.60
2018-11-05T09:45:04.539Z,12.47
2018-11-05T09:47:10.101Z,12.57
2018-11-05T09:48:09.971Z,12.67
2018-11-05T09:50:03.238Z,12.58
2018-11-05T09:51:03.121Z,12.65
2018-11-05T09:52:03.044Z,12.64
2018-11-05T09:53:03.005Z,12.70
2018-11-05T09:54:02.886Z,12.67
2018-11-05T09:55:02.806Z,12.65
2018-11-05T09:56:02.736Z,12.62
2018-11-05T09:57:02.671Z,12.68
2018-11-05T09:58:02.568Z,12.62
2018-11-05T09:59:02.488Z,12.61
2018-11-05T10:00:02.411Z,12.72
2018-11-05T10:01:02.329Z,12.68
2018-11-05T10:02:02.259Z,12.64
2018-11-05T10:03:02.364Z,12.72
2018-11-05T10:04:02.119Z,12.68
2018-11-05T10:05:02.312Z,12.68
2018-11-05T10:06:01.933Z,12.72
2018-11-05T10:07:01.853Z,12.68
2018-11-05T10:08:01.816Z,12.76
2018-11-05T10:09:01.698Z,12.73
2018-11-05T10:10:01.622Z,12.78
2018-11-05T10:11:01.551Z,12.80
2018-11-05T10:12:01.466Z,12.86
2018-11-05T10:13:01.386Z,12.80
2018-11-05T10:14:01.303Z,12.78
2018-11-05T10:15:01.226Z,12.76
2018-11-05T10:16:01.146Z,12.87
2018-11-05T10:17:01.068Z,12.80
2018-11-05T10:18:00.984Z,12.80
2018-11-05T10:19:00.907Z,12.93
2018-11-05T10:20:00.833Z,12.83
2018-11-05T10:21:00.748Z,12.83
2018-11-05T10:22:00.673Z,12.82
2018-11-05T10:23:00.590Z,12.82
2018-11-05T10:24:00.514Z,12.82
2018-11-05T10:25:00.595Z,12.90
2018-11-05T10:26:00.356Z,12.87
2018-11-05T10:27:00.294Z,12.87
2018-11-05T10:28:00.199Z,12.86
2018-11-05T10:29:00.118Z,12.91
2018-11-05T10:30:00.038Z,12.83
2018-11-05T10:30:59.964Z,12.93
2018-11-05T10:31:59.905Z,12.85
2018-11-05T10:32:59.881Z,12.91
2018-11-05T10:33:59.727Z,12.91
2018-11-05T10:34:59.644Z,12.91
2018-11-05T10:35:59.566Z,12.93
2018-11-05T10:36:59.485Z,12.94
2018-11-05T10:37:59.408Z,12.93
2018-11-05T10:38:59.337Z,12.91
2018-11-05T10:39:59.312Z,12.91
2018-11-05T10:40:59.174Z,12.90
2018-11-05T10:41:59.093Z,12.94
2018-11-05T10:42:59.014Z,12.91
2018-11-05T10:43:58.936Z,12.91
2018-11-05T10:44:58.860Z,12.97
2018-11-05T10:45:58.834Z,12.94
2018-11-05T10:46:58.699Z,12.95
2018-11-05T10:47:58.621Z,13.00
2018-11-05T10:48:58.542Z,12.97
2018-11-05T10:49:58.463Z,12.95
2018-11-05T10:50:58.443Z,12.97
2018-11-05T10:51:58.396Z,12.97
2018-11-05T10:52:58.225Z,12.94
2018-11-05T10:53:58.148Z,12.94
2018-11-05T10:54:58.070Z,12.93
2018-11-05T10:55:57.990Z,13.01
2018-11-05T10:56:57.952Z,13.03
2018-11-05T10:57:57.890Z,13.04
2018-11-05T10:58:57.757Z,12.97
2018-11-05T10:59:57.678Z,12.97
2018-11-05T11:00:57.595Z,13.09
2018-11-05T11:01:57.519Z,12.98
2018-11-05T11:02:57.439Z,13.03
2018-11-05T11:03:57.491Z,13.09
2018-11-05T11:04:57.281Z,13.04
2018-11-05T11:05:57.201Z,13.00
2018-11-05T11:06:57.142Z,13.04
2018-11-05T11:07:57.047Z,13.11
2018-11-05T11:08:56.979Z,13.05
2018-11-05T11:09:56.888Z,13.11
2018-11-05T11:10:56.810Z,13.00
2018-11-05T11:11:56.730Z,13.04
2018-11-05T11:12:56.652Z,13.11
2018-11-05T11:13:56.573Z,13.12
2018-11-05T11:14:56.525Z,13.12
2018-11-05T11:15:56.418Z,13.11
2018-11-05T11:16:56.350Z,13.18
2018-11-05T11:17:56.258Z,13.19
2018-11-05T11:18:56.179Z,13.15
2018-11-05T11:19:56.112Z,13.13
2018-11-05T11:20:56.042Z,13.12
2018-11-05T11:21:55.971Z,13.23
2018-11-05T11:22:55.887Z,13.23
2018-11-05T11:23:55.787Z,13.27
2018-11-05T11:24:55.715Z,13.22
2018-11-05T11:25:55.628Z,13.19
2018-11-05T11:26:55.558Z,13.28
2018-11-05T11:27:55.634Z,13.22
2018-11-05T11:28:55.553Z,13.30
2018-11-05T11:29:55.357Z,13.30
2018-11-05T11:30:55.237Z,13.28
2018-11-05T11:31:55.159Z,13.28
2018-11-05T11:32:55.079Z,13.28
2018-11-05T11:33:55.011Z,13.23
2018-11-05T11:34:54.925Z,13.31
2018-11-05T11:35:54.846Z,13.28
2018-11-05T11:36:54.825Z,13.25
2018-11-05T11:37:54.749Z,13.28
2018-11-05T11:38:54.610Z,13.19
2018-11-05T11:39:54.532Z,13.22
2018-11-05T11:40:54.463Z,13.30
2018-11-05T11:41:54.376Z,13.30
2018-11-05T11:42:54.297Z,13.27
2018-11-05T11:43:54.240Z,13.35
2018-11-05T11:44:54.216Z,13.33
2018-11-05T11:45:54.105Z,13.33
2018-11-05T11:46:53.995Z,13.39
2018-11-05T11:47:53.907Z,13.31
2018-11-05T11:48:53.824Z,13.35
2018-11-05T11:49:53.748Z,13.37
2018-11-05T11:50:53.673Z,13.41
2018-11-05T11:51:53.595Z,13.41
2018-11-05T11:52:53.537Z,13.47
2018-11-05T11:53:53.467Z,13.44
2018-11-05T11:54:53.359Z,13.42
2018-11-05T11:55:53.328Z,13.46
2018-11-05T11:56:53.201Z,13.52
2018-11-05T11:57:53.123Z,13.54
2018-11-05T11:58:53.044Z,13.47
2018-11-05T11:59:52.998Z,13.63
2018-11-05T12:00:52.886Z,13.68
2018-11-05T12:01:52.808Z,13.78
2018-11-05T12:02:52.732Z,13.77
2018-11-05T12:03:52.687Z,13.79
2018-11-05T12:04:52.655Z,13.81
2018-11-05T12:05:52.498Z,13.92
2018-11-05T12:06:52.419Z,14.12
2018-11-05T12:07:52.345Z,14.25
2018-11-05T12:08:52.266Z,14.30
2018-11-05T12:09:52.191Z,14.45
2018-11-05T12:10:52.110Z,14.63
2018-11-05T12:11:52.039Z,14.77
2018-11-05T12:12:51.957Z,14.89
2018-11-05T12:13:51.888Z,14.88
2018-11-05T12:14:51.958Z,14.99
2018-11-05T12:15:51.731Z,15.11
2018-11-05T12:16:51.649Z,15.21
2018-11-05T12:17:51.575Z,15.47
2018-11-05T12:18:51.504Z,15.67
2018-11-05T12:19:51.425Z,15.75
2018-11-05T12:20:51.350Z,15.88
2018-11-05T12:21:51.294Z,16.08
2018-11-05T12:22:51.198Z,16.20
2018-11-05T12:23:51.130Z,16.32
2018-11-05T12:24:51.057Z,16.56
2018-11-05T12:25:50.978Z,16.60
2018-11-05T12:26:50.906Z,16.74
2018-11-05T12:27:50.828Z,16.83
2018-11-05T12:28:50.755Z,16.94
2018-11-05T12:29:50.681Z,17.08
2018-11-05T12:30:50.606Z,17.19
2018-11-05T12:31:50.538Z,17.23
2018-11-05T12:32:50.461Z,17.36
2018-11-05T12:33:50.391Z,17.39
2018-11-05T12:34:50.311Z,17.54
2018-11-05T12:35:50.243Z,17.54
2018-11-05T12:36:50.165Z,17.60
2018-11-05T12:37:50.093Z,17.71
2018-11-05T12:38:50.029Z,17.80
2018-11-05T12:39:49.948Z,17.82
2018-11-05T12:40:49.874Z,17.86
2018-11-05T12:41:49.802Z,17.95
2018-11-05T12:42:49.820Z,17.97
2018-11-05T12:43:49.682Z,18.00
2018-11-05T12:44:49.632Z,18.03
2018-11-05T12:45:49.511Z,18.05
2018-11-05T12:46:49.445Z,18.03
2018-11-05T12:47:49.366Z,18.07
2018-11-05T12:48:49.300Z,18.15
2018-11-05T12:49:49.237Z,18.16
2018-11-05T12:50:49.285Z,18.07
2018-11-05T12:51:49.264Z,18.13
2018-11-05T12:52:49.006Z,18.22
2018-11-05T12:53:48.929Z,18.31
2018-11-05T12:54:48.860Z,18.33
2018-11-05T12:55:48.786Z,18.29